KMER/MER METAR and TAF weather

Enter ICAO airport designator
Station Type Date Time Source
KMER METAR 2023/02/05 13:35 UTC NOAA

KMER 051335Z AUTO 22003KT 10SM OVC055 09/09 A3018 RMK AO1


Station Type Date Time Source
KMER Decoded METAR 2023/02/05 13:35 UTC NOAA

Merced / Castle Air Force Base, CA, United States (KMER) 37-22N 120-34W 60M
Feb 05, 2023 - 08:35 AM EST / 2023.02.05 1335 UTC
Wind: from the SW (220 degrees) at 3 MPH (3 KT):0
Visibility: 10 mile(s):0
Sky conditions: overcast
Temperature: 48 F (9 C)
Dew Point: 48 F (9 C)
Relative Humidity: 100%
Pressure (altimeter): 30.18 in. Hg (1022 hPa)
ob: KMER 051335Z AUTO 22003KT 10SM OVC055 09/09 A3018 RMK AO1
cycle: 13

Station Type Date Time Source
KMER TAF 2023/02/05 12:26 UTC NOAA

TAF KMER 051120Z 0512/0612 21004KT P6SM SKC
FM051600 31010G18KT P6SM -RA OVC050
TEMPO 0520/0524 P6SM -TSRA OVC050CB
FM060200 33008KT P6SM OVC050 PROB30 0602/0603 P6SM -RA OVC100
FM060600 32010KT P6SM SKC

Example: see airport list